Boo Sonier — WDG3281 — position and weather

sailwx.info

Track history (hours):
 
Tides and Currents Weather Stations Pressure Air Temp Water Temp Dewpoint Dewpoint Depression Visibility Wind Speed Wind Dir Waves Ship Positions

Boo Sonier

Owner: LeBeouf Bros. Towing, LLC, Houma, LA. More information available from US FCC via Universal Licensing System and Coast Guard Vessel Documentation Center.

Last reported at 2017-Jan-13 14:33 UTC. Time now 2017-Jan-23 06:39 UTC.
Position N 29°34' W 090°32'.
Warning: this ship's position is 9 days out of date.

Length 21 m.

Type: Tug. MMSI: 367524420.

Date/timePositionNaut miles runAvg speedWind from/ knotsBaromVisibWave heightAir tempDewpointWater temp
2017-Jan-13 14:33N 29°34' W 090°32'4 3.0
2017-Jan-13 13:23N 29°35' W 090°36'0 0.1
2017-Jan-13 12:28N 29°35' W 090°36'0 0.0
2017-Jan-13 11:28N 29°35' W 090°36'0 0.0
2017-Jan-13 10:28N 29°35' W 090°36'0 0.0
2017-Jan-13 09:28N 29°35' W 090°36'0 0.0
2017-Jan-13 08:28N 29°35' W 090°36'0 0.0
2017-Jan-13 07:28N 29°35' W 090°36'1 1.3
2017-Jan-13 06:34N 29°35' W 090°37'3 3.3
2017-Jan-13 05:33N 29°36' W 090°40'2 1.5
2017-Jan-13 04:33N 29°37' W 090°42'0 0.0
2017-Jan-13 03:33N 29°37' W 090°42'0 0.0
2017-Jan-13 02:33N 29°37' W 090°42'0 0.0
2017-Jan-13 01:33N 29°37' W 090°42'0 0.0
2017-Jan-13 00:30N 29°37' W 090°42'0 0.0
2017-Jan-12 23:33N 29°37' W 090°42'0 0.0
2017-Jan-12 22:33N 29°37' W 090°42'0 0.0
2017-Jan-12 21:33N 29°37' W 090°42'0 0.0
2017-Jan-12 20:33N 29°37' W 090°42'0 0.0
2017-Jan-12 19:33N 29°37' W 090°42'0 0.0
2017-Jan-12 18:33N 29°37' W 090°42'0 0.0
2017-Jan-12 17:33N 29°37' W 090°42'0 0.3
2017-Jan-12 16:34N 29°37' W 090°41'6 5.7
2017-Jan-12 15:34N 29°35' W 090°35'0 0.3
2017-Jan-12 14:30N 29°34' W 090°36'0 0.0
2017-Jan-12 13:30N 29°34' W 090°36'0 0.0
2017-Jan-12 12:24N 29°34' W 090°36'0 0.0
2017-Jan-12 11:24N 29°34' W 090°36'0 0.0
2017-Jan-12 10:30N 29°34' W 090°36'0 0.0
2017-Jan-12 09:30N 29°34' W 090°36'0 0.0
2017-Jan-12 08:30N 29°34' W 090°36'0 0.0
2017-Jan-12 07:30N 29°34' W 090°36'0 0.0
2017-Jan-12 06:30N 29°34' W 090°36'0 0.0
2017-Jan-12 05:30N 29°34' W 090°36'0 0.0
2017-Jan-12 04:30N 29°34' W 090°36'0 0.0
2017-Jan-12 03:30N 29°34' W 090°36'0 0.0
2017-Jan-12 02:30N 29°34' W 090°36'0 0.0
2017-Jan-12 01:30N 29°34' W 090°36'0 0.5
2017-Jan-12 00:32N 29°35' W 090°36'0 0.2
2017-Jan-11 23:33N 29°35' W 090°36'0 0.2
2017-Jan-11 21:30N 29°34' W 090°36'0 0.0
2017-Jan-11 20:18N 29°34' W 090°36'0 0.0
2017-Jan-11 19:30N 29°34' W 090°36'0 0.0
2017-Jan-11 18:30N 29°34' W 090°36'0 0.0
2017-Jan-11 17:24N 29°34' W 090°36'0 0.0
2017-Jan-11 16:30N 29°34' W 090°36'0 0.0
2017-Jan-11 15:30N 29°34' W 090°36'0 0.0
2017-Jan-11 12:12N 29°34' W 090°36'0 0.5
2017-Jan-11 11:33N 29°35' W 090°36'0 0.3
2017-Jan-11 10:33N 29°35' W 090°36'5 4.6
2017-Jan-11 09:33N 29°36' W 090°41'3 2.6
2017-Jan-11 08:33N 29°34' W 090°43'5 4.6
2017-Jan-11 07:33N 29°32' W 090°48'2 0.1
2017-Jan-10 00:31N 29°32' W 090°50'7 7.0
2017-Jan-09 23:33N 29°34' W 090°43'3 2.6
2017-Jan-09 22:33N 29°37' W 090°42'5 5.5
2017-Jan-09 21:33N 29°35' W 090°36'0 0.4
2017-Jan-09 20:32N 29°34' W 090°36'0 0.0
2017-Jan-09 19:32N 29°34' W 090°36'0 0.0
2017-Jan-09 18:32N 29°34' W 090°36'0 0.0
2017-Jan-09 17:32N 29°34' W 090°36'0 0.0
2017-Jan-09 16:29N 29°34' W 090°36'0 0.0
2017-Jan-09 15:29N 29°34' W 090°36'0 0.0
2017-Jan-09 14:23N 29°34' W 090°36'0 0.0
2017-Jan-09 13:29N 29°34' W 090°36'0 0.0
2017-Jan-09 12:32N 29°34' W 090°36'0 0.0
2017-Jan-09 11:29N 29°34' W 090°36'0 0.0
2017-Jan-09 10:32N 29°34' W 090°36'0 0.0
2017-Jan-09 09:29N 29°34' W 090°36'0 0.0
2017-Jan-09 08:29N 29°34' W 090°36'0 0.0
2017-Jan-09 07:29N 29°34' W 090°36'0 0.0
2017-Jan-09 06:32N 29°34' W 090°36'0 0.0
2017-Jan-09 05:32N 29°34' W 090°36'0 0.0
2017-Jan-09 04:32N 29°34' W 090°36'0 0.0
2017-Jan-09 03:29N 29°34' W 090°36'0 0.0
2017-Jan-09 02:32N 29°34' W 090°36'0 0.0
2017-Jan-09 01:29N 29°34' W 090°36'0 0.0
2017-Jan-09 00:29N 29°34' W 090°36'0 0.0
2017-Jan-08 23:11N 29°34' W 090°36'0 0.1
2017-Jan-08 16:33N 29°35' W 090°36'2 2.4
2017-Jan-08 15:33N 29°34' W 090°33'  
Track history (hours):
 
Tides and Currents Weather Stations Pressure Air Temp Water Temp Dewpoint Dewpoint Depression Visibility Wind Speed Wind Dir Waves Ship Positions

Boo Sonier

Owner: LeBeouf Bros. Towing, LLC, Houma, LA. More information available from US FCC via Universal Licensing System and Coast Guard Vessel Documentation Center.

Last reported at 2017-Jan-13 14:33 UTC. Time now 2017-Jan-23 06:39 UTC.
Position N 29°34' W 090°32'.
Warning: this ship's position is 9 days out of date.

Length 21 m.

Type: Tug. MMSI: 367524420.

Date/timePositionNaut miles runAvg speedWind from/ knotsBaromVisibWave heightAir tempDewpointWater temp
2017-Jan-13 14:33N 29°34' W 090°32'4 3.0
2017-Jan-13 13:23N 29°35' W 090°36'0 0.1
2017-Jan-13 12:28N 29°35' W 090°36'0 0.0
2017-Jan-13 11:28N 29°35' W 090°36'0 0.0
2017-Jan-13 10:28N 29°35' W 090°36'0 0.0
2017-Jan-13 09:28N 29°35' W 090°36'0 0.0
2017-Jan-13 08:28N 29°35' W 090°36'0 0.0
2017-Jan-13 07:28N 29°35' W 090°36'1 1.3
2017-Jan-13 06:34N 29°35' W 090°37'3 3.3
2017-Jan-13 05:33N 29°36' W 090°40'2 1.5
2017-Jan-13 04:33N 29°37' W 090°42'0 0.0
2017-Jan-13 03:33N 29°37' W 090°42'0 0.0
2017-Jan-13 02:33N 29°37' W 090°42'0 0.0
2017-Jan-13 01:33N 29°37' W 090°42'0 0.0
2017-Jan-13 00:30N 29°37' W 090°42'0 0.0
2017-Jan-12 23:33N 29°37' W 090°42'0 0.0
2017-Jan-12 22:33N 29°37' W 090°42'0 0.0
2017-Jan-12 21:33N 29°37' W 090°42'0 0.0
2017-Jan-12 20:33N 29°37' W 090°42'0 0.0
2017-Jan-12 19:33N 29°37' W 090°42'0 0.0
2017-Jan-12 18:33N 29°37' W 090°42'0 0.0
2017-Jan-12 17:33N 29°37' W 090°42'0 0.3
2017-Jan-12 16:34N 29°37' W 090°41'6 5.7
2017-Jan-12 15:34N 29°35' W 090°35'0 0.3
2017-Jan-12 14:30N 29°34' W 090°36'0 0.0
2017-Jan-12 13:30N 29°34' W 090°36'0 0.0
2017-Jan-12 12:24N 29°34' W 090°36'0 0.0
2017-Jan-12 11:24N 29°34' W 090°36'0 0.0
2017-Jan-12 10:30N 29°34' W 090°36'0 0.0
2017-Jan-12 09:30N 29°34' W 090°36'0 0.0
2017-Jan-12 08:30N 29°34' W 090°36'0 0.0
2017-Jan-12 07:30N 29°34' W 090°36'0 0.0
2017-Jan-12 06:30N 29°34' W 090°36'0 0.0
2017-Jan-12 05:30N 29°34' W 090°36'0 0.0
2017-Jan-12 04:30N 29°34' W 090°36'0 0.0
2017-Jan-12 03:30N 29°34' W 090°36'0 0.0
2017-Jan-12 02:30N 29°34' W 090°36'0 0.0
2017-Jan-12 01:30N 29°34' W 090°36'0 0.5
2017-Jan-12 00:32N 29°35' W 090°36'0 0.2
2017-Jan-11 23:33N 29°35' W 090°36'0 0.2
2017-Jan-11 21:30N 29°34' W 090°36'0 0.0
2017-Jan-11 20:18N 29°34' W 090°36'0 0.0
2017-Jan-11 19:30N 29°34' W 090°36'0 0.0
2017-Jan-11 18:30N 29°34' W 090°36'0 0.0
2017-Jan-11 17:24N 29°34' W 090°36'0 0.0
2017-Jan-11 16:30N 29°34' W 090°36'0 0.0
2017-Jan-11 15:30N 29°34' W 090°36'0 0.0
2017-Jan-11 12:12N 29°34' W 090°36'0 0.5
2017-Jan-11 11:33N 29°35' W 090°36'0 0.3
2017-Jan-11 10:33N 29°35' W 090°36'5 4.6
2017-Jan-11 09:33N 29°36' W 090°41'3 2.6
2017-Jan-11 08:33N 29°34' W 090°43'5 4.6
2017-Jan-11 07:33N 29°32' W 090°48'2 0.1
2017-Jan-10 00:31N 29°32' W 090°50'7 7.0
2017-Jan-09 23:33N 29°34' W 090°43'3 2.6
2017-Jan-09 22:33N 29°37' W 090°42'5 5.5
2017-Jan-09 21:33N 29°35' W 090°36'0 0.4
2017-Jan-09 20:32N 29°34' W 090°36'0 0.0
2017-Jan-09 19:32N 29°34' W 090°36'0 0.0
2017-Jan-09 18:32N 29°34' W 090°36'0 0.0
2017-Jan-09 17:32N 29°34' W 090°36'0 0.0
2017-Jan-09 16:29N 29°34' W 090°36'0 0.0
2017-Jan-09 15:29N 29°34' W 090°36'0 0.0
2017-Jan-09 14:23N 29°34' W 090°36'0 0.0
2017-Jan-09 13:29N 29°34' W 090°36'0 0.0
2017-Jan-09 12:32N 29°34' W 090°36'0 0.0
2017-Jan-09 11:29N 29°34' W 090°36'0 0.0
2017-Jan-09 10:32N 29°34' W 090°36'0 0.0
2017-Jan-09 09:29N 29°34' W 090°36'0 0.0
2017-Jan-09 08:29N 29°34' W 090°36'0 0.0
2017-Jan-09 07:29N 29°34' W 090°36'0 0.0
2017-Jan-09 06:32N 29°34' W 090°36'0 0.0
2017-Jan-09 05:32N 29°34' W 090°36'0 0.0
2017-Jan-09 04:32N 29°34' W 090°36'0 0.0
2017-Jan-09 03:29N 29°34' W 090°36'0 0.0
2017-Jan-09 02:32N 29°34' W 090°36'0 0.0
2017-Jan-09 01:29N 29°34' W 090°36'0 0.0
2017-Jan-09 00:29N 29°34' W 090°36'0 0.0
2017-Jan-08 23:11N 29°34' W 090°36'0 0.1
2017-Jan-08 16:33N 29°35' W 090°36'2 2.4
2017-Jan-08 15:33N 29°34' W 090°33'  

Dump ship's entire track history